LFMC

Le Luc-Le Cannet Airport

Airport
ICAO code
LFMC
Summary
ICAO Region
EUR
ICAO Territory
Location

, Provence-Alpes-Cote d'Azur

Serving
Le Luc
Elevation
265 ft
Coordinates
43° 23' 5" N , 6° 23' 14" E
Metar
Observation
LFMC 030230Z AUTO 20004KT 7000 RA ////// 07/06 Q1010
Station
Le Luc
Date/Time
2022-12-03 02:30:00
Wind direction
200°
Wind speed
04 kts
Lowest cloud amount
n/a
Temperature
7°C
Dew point
6°C
Humidity
93%
QNH
1010 hPa
Weather condition
n/a

Runways

Designator Length Width Surface Rops
9/27 800 30 ASP No/No
13/31 1400 30 ASP No/No

Airport map

Aerial View

SKYbrary Partners:

Safety knowledge contributed by: